sensor_id;sensor_type;location;lat;lon;timestamp;P1;durP1;ratioP1;P2;durP2;ratioP2
3085;SDS011;52812;48.960;9.108;2022-09-27T00:01:00;1.60;;;1.50;;
3085;SDS011;52812;48.960;9.108;2022-09-27T00:03:28;1.40;;;1.30;;
3085;SDS011;52812;48.960;9.108;2022-09-27T00:06:05;1.60;;;1.50;;
3085;SDS011;52812;48.960;9.108;2022-09-27T00:08:33;1.80;;;1.60;;
3085;SDS011;52812;48.960;9.108;2022-09-27T00:11:00;1.90;;;1.70;;
3085;SDS011;52812;48.960;9.108;2022-09-27T00:13:28;2.20;;;1.77;;
3085;SDS011;52812;48.960;9.108;2022-09-27T00:15:58;2.67;;;1.40;;
3085;SDS011;52812;48.960;9.108;2022-09-27T00:18:24;2.77;;;1.60;;
3085;SDS011;52812;48.960;9.108;2022-09-27T00:20:50;2.53;;;1.43;;
3085;SDS011;52812;48.960;9.108;2022-09-27T00:23:16;1.83;;;1.50;;
3085;SDS011;52812;48.960;9.108;2022-09-27T00:25:42;2.40;;;1.40;;
3085;SDS011;52812;48.960;9.108;2022-09-27T00:28:07;1.83;;;1.30;;
3085;SDS011;52812;48.960;9.108;2022-09-27T00:30:33;1.63;;;1.53;;
3085;SDS011;52812;48.960;9.108;2022-09-27T00:32:59;1.30;;;1.20;;
3085;SDS011;52812;48.960;9.108;2022-09-27T00:35:25;1.40;;;1.30;;
3085;SDS011;52812;48.960;9.108;2022-09-27T00:37:50;1.47;;;1.37;;
3085;SDS011;52812;48.960;9.108;2022-09-27T00:40:16;2.63;;;1.30;;
3085;SDS011;52812;48.960;9.108;2022-09-27T00:42:42;1.27;;;1.10;;
3085;SDS011;52812;48.960;9.108;2022-09-27T00:45:11;1.60;;;1.50;;
3085;SDS011;52812;48.960;9.108;2022-09-27T00:47:49;1.40;;;1.30;;
3085;SDS011;52812;48.960;9.108;2022-09-27T00:50:25;1.30;;;1.20;;
3085;SDS011;52812;48.960;9.108;2022-09-27T00:53:18;1.67;;;1.10;;
3085;SDS011;52812;48.960;9.108;2022-09-27T00:55:56;2.07;;;1.50;;
3085;SDS011;52812;48.960;9.108;2022-09-27T00:58:28;1.60;;;1.50;;
3085;SDS011;52812;48.960;9.108;2022-09-27T01:00:58;1.70;;;1.50;;
3085;SDS011;52812;48.960;9.108;2022-09-27T01:03:33;1.40;;;1.30;;
3085;SDS011;52812;48.960;9.108;2022-09-27T01:06:08;1.50;;;1.40;;
3085;SDS011;52812;48.960;9.108;2022-09-27T01:08:34;2.53;;;1.30;;
3085;SDS011;52812;48.960;9.108;2022-09-27T01:11:43;2.57;;;1.30;;
3085;SDS011;52812;48.960;9.108;2022-09-27T01:17:13;1.37;;;1.13;;
3085;SDS011;52812;48.960;9.108;2022-09-27T01:22:25;1.40;;;1.30;;
3085;SDS011;52812;48.960;9.108;2022-09-27T01:30:44;1.80;;;1.30;;
3085;SDS011;52812;48.960;9.108;2022-09-27T01:33:24;1.47;;;1.20;;
3085;SDS011;52812;48.960;9.108;2022-09-27T01:39:31;1.30;;;1.20;;
3085;SDS011;52812;48.960;9.108;2022-09-27T01:42:11;2.40;;;1.30;;
3085;SDS011;52812;48.960;9.108;2022-09-27T01:44:51;1.40;;;1.30;;
3085;SDS011;52812;48.960;9.108;2022-09-27T01:47:30;1.87;;;1.30;;
3085;SDS011;52812;48.960;9.108;2022-09-27T01:50:08;1.17;;;1.07;;
3085;SDS011;52812;48.960;9.108;2022-09-27T01:52:46;1.80;;;1.17;;
3085;SDS011;52812;48.960;9.108;2022-09-27T01:55:16;2.67;;;1.40;;
3085;SDS011;52812;48.960;9.108;2022-09-27T01:57:47;1.20;;;1.10;;
3085;SDS011;52812;48.960;9.108;2022-09-27T02:00:19;1.30;;;1.10;;
3085;SDS011;52812;48.960;9.108;2022-09-27T02:05:21;3.20;;;1.27;;
3085;SDS011;52812;48.960;9.108;2022-09-27T02:07:57;1.40;;;1.13;;
3085;SDS011;52812;48.960;9.108;2022-09-27T02:10:32;2.23;;;1.20;;
3085;SDS011;52812;48.960;9.108;2022-09-27T02:13:10;1.93;;;1.30;;
3085;SDS011;52812;48.960;9.108;2022-09-27T02:15:57;1.60;;;1.50;;
3085;SDS011;52812;48.960;9.108;2022-09-27T02:21:40;3.70;;;1.60;;
3085;SDS011;52812;48.960;9.108;2022-09-27T02:24:39;2.00;;;1.50;;
3085;SDS011;52812;48.960;9.108;2022-09-27T02:27:31;3.70;;;1.37;;
3085;SDS011;52812;48.960;9.108;2022-09-27T02:30:02;2.30;;;1.40;;
3085;SDS011;52812;48.960;9.108;2022-09-27T02:32:34;1.70;;;1.43;;
3085;SDS011;52812;48.960;9.108;2022-09-27T02:35:01;3.80;;;1.70;;
3085;SDS011;52812;48.960;9.108;2022-09-27T02:37:31;2.13;;;1.60;;
3085;SDS011;52812;48.960;9.108;2022-09-27T02:39:57;5.63;;;1.80;;
3085;SDS011;52812;48.960;9.108;2022-09-27T02:42:23;3.30;;;1.80;;
3085;SDS011;52812;48.960;9.108;2022-09-27T02:44:49;4.00;;;1.67;;
3085;SDS011;52812;48.960;9.108;2022-09-27T02:47:23;3.63;;;1.90;;
3085;SDS011;52812;48.960;9.108;2022-09-27T02:55:39;3.47;;;1.90;;
3085;SDS011;52812;48.960;9.108;2022-09-27T02:58:21;4.70;;;2.13;;
3085;SDS011;52812;48.960;9.108;2022-09-27T03:01:11;5.20;;;2.20;;
3085;SDS011;52812;48.960;9.108;2022-09-27T03:06:47;6.10;;;2.80;;
3085;SDS011;52812;48.960;9.108;2022-09-27T03:09:18;4.47;;;2.23;;
3085;SDS011;52812;48.960;9.108;2022-09-27T03:11:48;3.90;;;2.00;;
3085;SDS011;52812;48.960;9.108;2022-09-27T03:14:14;5.40;;;2.30;;
3085;SDS011;52812;48.960;9.108;2022-09-27T03:16:40;4.97;;;2.37;;
3085;SDS011;52812;48.960;9.108;2022-09-27T03:19:07;4.17;;;2.40;;
3085;SDS011;52812;48.960;9.108;2022-09-27T03:21:33;2.87;;;2.10;;
3085;SDS011;52812;48.960;9.108;2022-09-27T03:23:59;4.23;;;2.23;;
3085;SDS011;52812;48.960;9.108;2022-09-27T03:26:25;4.83;;;2.40;;
3085;SDS011;52812;48.960;9.108;2022-09-27T03:28:51;4.17;;;2.77;;
3085;SDS011;52812;48.960;9.108;2022-09-27T03:31:17;4.33;;;2.63;;
3085;SDS011;52812;48.960;9.108;2022-09-27T03:33:42;5.20;;;2.80;;
3085;SDS011;52812;48.960;9.108;2022-09-27T03:36:08;4.43;;;2.90;;
3085;SDS011;52812;48.960;9.108;2022-09-27T03:38:33;4.70;;;2.90;;
3085;SDS011;52812;48.960;9.108;2022-09-27T03:40:59;6.57;;;2.83;;
3085;SDS011;52812;48.960;9.108;2022-09-27T03:43:24;5.47;;;3.37;;
3085;SDS011;52812;48.960;9.108;2022-09-27T03:45:50;3.33;;;2.70;;
3085;SDS011;52812;48.960;9.108;2022-09-27T03:48:15;4.87;;;3.43;;
3085;SDS011;52812;48.960;9.108;2022-09-27T03:50:41;4.63;;;2.80;;
3085;SDS011;52812;48.960;9.108;2022-09-27T03:53:07;8.63;;;3.60;;
3085;SDS011;52812;48.960;9.108;2022-09-27T03:55:33;7.73;;;3.20;;
3085;SDS011;52812;48.960;9.108;2022-09-27T03:57:59;4.40;;;3.20;;
3085;SDS011;52812;48.960;9.108;2022-09-27T04:00:25;5.33;;;3.23;;
3085;SDS011;52812;48.960;9.108;2022-09-27T04:02:51;6.90;;;3.57;;
3085;SDS011;52812;48.960;9.108;2022-09-27T04:05:17;5.53;;;3.23;;
3085;SDS011;52812;48.960;9.108;2022-09-27T04:07:46;8.53;;;3.47;;
3085;SDS011;52812;48.960;9.108;2022-09-27T04:10:13;7.60;;;3.30;;
3085;SDS011;52812;48.960;9.108;2022-09-27T04:12:39;6.97;;;3.83;;
3085;SDS011;52812;48.960;9.108;2022-09-27T04:15:05;5.70;;;3.53;;
3085;SDS011;52812;48.960;9.108;2022-09-27T04:17:32;5.67;;;3.00;;
3085;SDS011;52812;48.960;9.108;2022-09-27T04:19:59;5.90;;;3.00;;
3085;SDS011;52812;48.960;9.108;2022-09-27T04:22:26;8.90;;;4.17;;
3085;SDS011;52812;48.960;9.108;2022-09-27T04:24:52;6.33;;;3.60;;
3085;SDS011;52812;48.960;9.108;2022-09-27T04:27:18;5.47;;;3.17;;
3085;SDS011;52812;48.960;9.108;2022-09-27T04:29:44;6.73;;;3.23;;
3085;SDS011;52812;48.960;9.108;2022-09-27T04:32:11;8.07;;;3.90;;
3085;SDS011;52812;48.960;9.108;2022-09-27T04:34:37;4.10;;;3.10;;
3085;SDS011;52812;48.960;9.108;2022-09-27T04:37:34;4.40;;;3.00;;
3085;SDS011;52812;48.960;9.108;2022-09-27T04:40:01;5.77;;;3.30;;
3085;SDS011;52812;48.960;9.108;2022-09-27T04:42:27;5.47;;;3.40;;
3085;SDS011;52812;48.960;9.108;2022-09-27T04:44:53;7.20;;;3.30;;
3085;SDS011;52812;48.960;9.108;2022-09-27T04:47:19;6.53;;;3.20;;
3085;SDS011;52812;48.960;9.108;2022-09-27T04:49:45;4.73;;;2.93;;
3085;SDS011;52812;48.960;9.108;2022-09-27T04:52:11;5.90;;;3.07;;
3085;SDS011;52812;48.960;9.108;2022-09-27T04:54:39;6.67;;;3.40;;
3085;SDS011;52812;48.960;9.108;2022-09-27T04:57:05;6.40;;;3.43;;
3085;SDS011;52812;48.960;9.108;2022-09-27T04:59:30;6.40;;;2.90;;
3085;SDS011;52812;48.960;9.108;2022-09-27T05:01:56;6.30;;;2.80;;
3085;SDS011;52812;48.960;9.108;2022-09-27T05:04:24;7.20;;;3.30;;
3085;SDS011;52812;48.960;9.108;2022-09-27T05:06:50;7.63;;;2.97;;
3085;SDS011;52812;48.960;9.108;2022-09-27T05:09:16;5.40;;;2.60;;
3085;SDS011;52812;48.960;9.108;2022-09-27T05:11:41;5.67;;;3.20;;
3085;SDS011;52812;48.960;9.108;2022-09-27T05:14:07;3.80;;;2.70;;
3085;SDS011;52812;48.960;9.108;2022-09-27T05:16:32;4.10;;;2.63;;
3085;SDS011;52812;48.960;9.108;2022-09-27T05:19:00;7.50;;;2.60;;
3085;SDS011;52812;48.960;9.108;2022-09-27T05:21:26;5.47;;;2.80;;
3085;SDS011;52812;48.960;9.108;2022-09-27T05:23:51;5.03;;;2.57;;
3085;SDS011;52812;48.960;9.108;2022-09-27T05:26:18;3.43;;;2.37;;
3085;SDS011;52812;48.960;9.108;2022-09-27T05:28:43;5.70;;;2.50;;
3085;SDS011;52812;48.960;9.108;2022-09-27T05:31:11;3.87;;;2.23;;
3085;SDS011;52812;48.960;9.108;2022-09-27T05:33:38;4.97;;;2.50;;
3085;SDS011;52812;48.960;9.108;2022-09-27T05:36:04;3.50;;;2.00;;
3085;SDS011;52812;48.960;9.108;2022-09-27T05:38:30;3.27;;;2.50;;
3085;SDS011;52812;48.960;9.108;2022-09-27T05:40:55;2.40;;;2.10;;
3085;SDS011;52812;48.960;9.108;2022-09-27T05:43:21;3.10;;;2.67;;
3085;SDS011;52812;48.960;9.108;2022-09-27T05:45:47;3.57;;;2.20;;
3085;SDS011;52812;48.960;9.108;2022-09-27T05:48:14;2.70;;;2.10;;
3085;SDS011;52812;48.960;9.108;2022-09-27T05:50:39;5.00;;;2.30;;
3085;SDS011;52812;48.960;9.108;2022-09-27T05:53:05;3.63;;;2.10;;
3085;SDS011;52812;48.960;9.108;2022-09-27T05:55:31;3.53;;;2.10;;
3085;SDS011;52812;48.960;9.108;2022-09-27T05:57:58;4.80;;;2.40;;
3085;SDS011;52812;48.960;9.108;2022-09-27T06:00:25;4.27;;;2.33;;
3085;SDS011;52812;48.960;9.108;2022-09-27T06:02:59;4.37;;;2.40;;
3085;SDS011;52812;48.960;9.108;2022-09-27T06:05:33;4.90;;;2.90;;
3085;SDS011;52812;48.960;9.108;2022-09-27T06:08:01;2.70;;;2.30;;
3085;SDS011;52812;48.960;9.108;2022-09-27T06:10:29;3.07;;;2.30;;
3085;SDS011;52812;48.960;9.108;2022-09-27T06:13:06;3.43;;;2.40;;
3085;SDS011;52812;48.960;9.108;2022-09-27T06:15:36;2.70;;;2.40;;
3085;SDS011;52812;48.960;9.108;2022-09-27T06:18:04;6.33;;;2.40;;
3085;SDS011;52812;48.960;9.108;2022-09-27T06:20:32;4.87;;;2.70;;
3085;SDS011;52812;48.960;9.108;2022-09-27T06:25:36;3.10;;;2.27;;
3085;SDS011;52812;48.960;9.108;2022-09-27T06:28:03;3.10;;;2.43;;
3085;SDS011;52812;48.960;9.108;2022-09-27T06:30:29;5.10;;;3.10;;
3085;SDS011;52812;48.960;9.108;2022-09-27T06:32:58;4.87;;;2.47;;
3085;SDS011;52812;48.960;9.108;2022-09-27T06:35:26;3.53;;;2.20;;
3085;SDS011;52812;48.960;9.108;2022-09-27T06:37:53;4.10;;;2.30;;
3085;SDS011;52812;48.960;9.108;2022-09-27T06:40:19;3.30;;;1.90;;
3085;SDS011;52812;48.960;9.108;2022-09-27T06:42:46;4.60;;;2.40;;
3085;SDS011;52812;48.960;9.108;2022-09-27T06:45:12;2.80;;;2.07;;
3085;SDS011;52812;48.960;9.108;2022-09-27T06:47:38;4.10;;;2.17;;
3085;SDS011;52812;48.960;9.108;2022-09-27T06:50:04;2.50;;;2.10;;
3085;SDS011;52812;48.960;9.108;2022-09-27T06:52:31;2.60;;;1.87;;
3085;SDS011;52812;48.960;9.108;2022-09-27T06:54:57;4.60;;;2.00;;
3085;SDS011;52812;48.960;9.108;2022-09-27T06:57:23;2.23;;;2.03;;
3085;SDS011;52812;48.960;9.108;2022-09-27T07:00:08;3.57;;;2.00;;
3085;SDS011;52812;48.960;9.108;2022-09-27T07:02:47;2.23;;;2.03;;
3085;SDS011;52812;48.960;9.108;2022-09-27T07:05:13;3.10;;;2.60;;
3085;SDS011;52812;48.960;9.108;2022-09-27T07:07:39;3.30;;;2.40;;
3085;SDS011;52812;48.960;9.108;2022-09-27T07:10:05;2.60;;;2.13;;
3085;SDS011;52812;48.960;9.108;2022-09-27T07:12:31;5.93;;;1.70;;
3085;SDS011;52812;48.960;9.108;2022-09-27T07:15:00;1.97;;;1.60;;
3085;SDS011;52812;48.960;9.108;2022-09-27T07:17:27;3.10;;;1.67;;
3085;SDS011;52812;48.960;9.108;2022-09-27T07:19:53;4.10;;;1.43;;
3085;SDS011;52812;48.960;9.108;2022-09-27T07:22:19;1.80;;;1.40;;
3085;SDS011;52812;48.960;9.108;2022-09-27T07:24:45;2.53;;;1.60;;
3085;SDS011;52812;48.960;9.108;2022-09-27T07:27:11;3.53;;;1.60;;
3085;SDS011;52812;48.960;9.108;2022-09-27T07:29:36;2.70;;;1.57;;
3085;SDS011;52812;48.960;9.108;2022-09-27T07:32:02;3.23;;;1.50;;
3085;SDS011;52812;48.960;9.108;2022-09-27T07:34:28;5.47;;;1.63;;
3085;SDS011;52812;48.960;9.108;2022-09-27T07:36:58;2.50;;;1.57;;
3085;SDS011;52812;48.960;9.108;2022-09-27T07:39:24;3.10;;;1.50;;
3085;SDS011;52812;48.960;9.108;2022-09-27T07:41:50;3.60;;;1.63;;
3085;SDS011;52812;48.960;9.108;2022-09-27T07:44:16;3.47;;;2.00;;
3085;SDS011;52812;48.960;9.108;2022-09-27T07:46:42;2.33;;;1.70;;
3085;SDS011;52812;48.960;9.108;2022-09-27T07:49:08;2.87;;;1.70;;
3085;SDS011;52812;48.960;9.108;2022-09-27T07:51:33;2.43;;;1.67;;
3085;SDS011;52812;48.960;9.108;2022-09-27T07:53:59;2.80;;;1.70;;
3085;SDS011;52812;48.960;9.108;2022-09-27T07:56:28;2.33;;;1.60;;
3085;SDS011;52812;48.960;9.108;2022-09-27T07:58:54;3.00;;;1.83;;
3085;SDS011;52812;48.960;9.108;2022-09-27T08:01:20;2.17;;;1.97;;
3085;SDS011;52812;48.960;9.108;2022-09-27T08:03:45;2.70;;;1.90;;
3085;SDS011;52812;48.960;9.108;2022-09-27T08:06:11;2.47;;;1.90;;
3085;SDS011;52812;48.960;9.108;2022-09-27T08:08:37;3.10;;;1.90;;
3085;SDS011;52812;48.960;9.108;2022-09-27T08:11:10;2.03;;;1.83;;
3085;SDS011;52812;48.960;9.108;2022-09-27T08:13:39;3.07;;;2.47;;
3085;SDS011;52812;48.960;9.108;2022-09-27T08:16:07;2.90;;;1.80;;
3085;SDS011;52812;48.960;9.108;2022-09-27T08:18:33;1.97;;;1.70;;
3085;SDS011;52812;48.960;9.108;2022-09-27T08:20:59;1.93;;;1.70;;
3085;SDS011;52812;48.960;9.108;2022-09-27T08:23:25;3.13;;;2.10;;
3085;SDS011;52812;48.960;9.108;2022-09-27T08:25:52;2.07;;;1.87;;
3085;SDS011;52812;48.960;9.108;2022-09-27T08:28:18;3.23;;;2.00;;
3085;SDS011;52812;48.960;9.108;2022-09-27T08:30:50;2.57;;;1.73;;
3085;SDS011;52812;48.960;9.108;2022-09-27T08:33:15;2.30;;;1.90;;
3085;SDS011;52812;48.960;9.108;2022-09-27T08:35:44;3.27;;;2.00;;
3085;SDS011;52812;48.960;9.108;2022-09-27T08:38:17;3.27;;;2.00;;
3085;SDS011;52812;48.960;9.108;2022-09-27T08:40:45;2.03;;;1.83;;
3085;SDS011;52812;48.960;9.108;2022-09-27T08:46:40;2.17;;;1.73;;
3085;SDS011;52812;48.960;9.108;2022-09-27T08:49:31;3.50;;;1.70;;
3085;SDS011;52812;48.960;9.108;2022-09-27T08:52:03;2.83;;;1.77;;
3085;SDS011;52812;48.960;9.108;2022-09-27T08:54:33;1.57;;;1.47;;
3085;SDS011;52812;48.960;9.108;2022-09-27T08:57:01;3.07;;;2.03;;
3085;SDS011;52812;48.960;9.108;2022-09-27T08:59:34;2.27;;;2.07;;
3085;SDS011;52812;48.960;9.108;2022-09-27T09:02:10;4.90;;;1.90;;
3085;SDS011;52812;48.960;9.108;2022-09-27T09:04:43;2.73;;;2.00;;
3085;SDS011;52812;48.960;9.108;2022-09-27T09:19:20;7.23;;;3.33;;
3085;SDS011;52812;48.960;9.108;2022-09-27T09:36:03;4.40;;;2.70;;
3085;SDS011;52812;48.960;9.108;2022-09-27T09:38:36;3.60;;;3.03;;
3085;SDS011;52812;48.960;9.108;2022-09-27T09:43:41;5.53;;;2.80;;
3085;SDS011;52812;48.960;9.108;2022-09-27T09:46:21;3.40;;;2.70;;
3085;SDS011;52812;48.960;9.108;2022-09-27T09:51:26;3.70;;;2.87;;
3085;SDS011;52812;48.960;9.108;2022-09-27T09:54:01;4.53;;;2.80;;
3085;SDS011;52812;48.960;9.108;2022-09-27T09:56:41;6.30;;;2.80;;
3085;SDS011;52812;48.960;9.108;2022-09-27T09:59:14;3.90;;;2.87;;
3085;SDS011;52812;48.960;9.108;2022-09-27T10:01:42;3.67;;;3.13;;
3085;SDS011;52812;48.960;9.108;2022-09-27T10:04:15;6.37;;;2.80;;
3085;SDS011;52812;48.960;9.108;2022-09-27T10:06:47;4.93;;;2.90;;
3085;SDS011;52812;48.960;9.108;2022-09-27T10:09:17;4.17;;;2.60;;
3085;SDS011;52812;48.960;9.108;2022-09-27T10:11:48;4.30;;;2.50;;
3085;SDS011;52812;48.960;9.108;2022-09-27T10:14:15;4.53;;;3.10;;
3085;SDS011;52812;48.960;9.108;2022-09-27T10:16:46;5.20;;;3.03;;
3085;SDS011;52812;48.960;9.108;2022-09-27T10:19:17;4.87;;;2.77;;
3085;SDS011;52812;48.960;9.108;2022-09-27T10:22:00;3.83;;;2.97;;
3085;SDS011;52812;48.960;9.108;2022-09-27T10:24:51;3.20;;;2.83;;
3085;SDS011;52812;48.960;9.108;2022-09-27T10:27:36;6.00;;;2.30;;
3085;SDS011;52812;48.960;9.108;2022-09-27T10:30:05;3.60;;;2.60;;
3085;SDS011;52812;48.960;9.108;2022-09-27T10:32:45;5.83;;;2.20;;
3085;SDS011;52812;48.960;9.108;2022-09-27T10:40:51;2.53;;;2.17;;
3085;SDS011;52812;48.960;9.108;2022-09-27T10:43:23;6.07;;;2.50;;
3085;SDS011;52812;48.960;9.108;2022-09-27T10:46:05;2.80;;;2.53;;
3085;SDS011;52812;48.960;9.108;2022-09-27T10:48:34;3.00;;;2.43;;
3085;SDS011;52812;48.960;9.108;2022-09-27T10:51:02;4.33;;;2.77;;
3085;SDS011;52812;48.960;9.108;2022-09-27T10:53:30;2.80;;;2.30;;
3085;SDS011;52812;48.960;9.108;2022-09-27T10:55:58;4.13;;;2.47;;
3085;SDS011;52812;48.960;9.108;2022-09-27T10:58:29;4.03;;;2.90;;
3085;SDS011;52812;48.960;9.108;2022-09-27T11:01:04;4.33;;;3.47;;
3085;SDS011;52812;48.960;9.108;2022-09-27T11:03:37;9.40;;;4.70;;
3085;SDS011;52812;48.960;9.108;2022-09-27T11:06:44;6.33;;;4.50;;
3085;SDS011;52812;48.960;9.108;2022-09-27T11:09:23;11.07;;;9.20;;
3085;SDS011;52812;48.960;9.108;2022-09-27T11:12:04;3.80;;;3.50;;
3085;SDS011;52812;48.960;9.108;2022-09-27T11:14:34;9.13;;;3.80;;
3085;SDS011;52812;48.960;9.108;2022-09-27T11:17:18;3.50;;;3.20;;
3085;SDS011;52812;48.960;9.108;2022-09-27T11:28:38;5.83;;;3.47;;
3085;SDS011;52812;48.960;9.108;2022-09-27T11:37:32;9.57;;;3.50;;
3085;SDS011;52812;48.960;9.108;2022-09-27T11:40:11;2.90;;;2.53;;
3085;SDS011;52812;48.960;9.108;2022-09-27T11:59:02;2.70;;;1.87;;
3085;SDS011;52812;48.960;9.108;2022-09-27T12:04:08;2.23;;;2.03;;
3085;SDS011;52812;48.960;9.108;2022-09-27T12:07:27;4.37;;;2.17;;
3085;SDS011;52812;48.960;9.108;2022-09-27T12:10:06;2.33;;;2.13;;
3085;SDS011;52812;48.960;9.108;2022-09-27T12:15:16;3.57;;;2.70;;
3085;SDS011;52812;48.960;9.108;2022-09-27T12:17:51;2.23;;;2.03;;
3085;SDS011;52812;48.960;9.108;2022-09-27T12:20:30;5.10;;;4.03;;
3085;SDS011;52812;48.960;9.108;2022-09-27T12:23:02;3.00;;;2.70;;
3085;SDS011;52812;48.960;9.108;2022-09-27T12:25:35;2.83;;;2.33;;
3085;SDS011;52812;48.960;9.108;2022-09-27T12:28:14;2.90;;;2.60;;
3085;SDS011;52812;48.960;9.108;2022-09-27T12:30:46;3.00;;;2.70;;
3085;SDS011;52812;48.960;9.108;2022-09-27T12:33:25;2.77;;;2.50;;
3085;SDS011;52812;48.960;9.108;2022-09-27T12:35:57;4.60;;;3.03;;
3085;SDS011;52812;48.960;9.108;2022-09-27T12:38:38;3.63;;;3.33;;
3085;SDS011;52812;48.960;9.108;2022-09-27T12:41:10;1.60;;;1.50;;
3085;SDS011;52812;48.960;9.108;2022-09-27T12:43:40;3.80;;;3.33;;
3085;SDS011;52812;48.960;9.108;2022-09-27T12:46:14;6.63;;;3.87;;
3085;SDS011;52812;48.960;9.108;2022-09-27T12:51:44;2.80;;;2.30;;
3085;SDS011;52812;48.960;9.108;2022-09-27T12:57:25;3.90;;;2.13;;
3085;SDS011;52812;48.960;9.108;2022-09-27T13:08:48;3.30;;;2.00;;
3085;SDS011;52812;48.960;9.108;2022-09-27T13:14:15;2.43;;;1.80;;
3085;SDS011;52812;48.960;9.108;2022-09-27T13:16:43;3.40;;;1.70;;
3085;SDS011;52812;48.960;9.108;2022-09-27T13:22:01;3.17;;;1.63;;
3085;SDS011;52812;48.960;9.108;2022-09-27T13:29:47;2.73;;;2.30;;
3085;SDS011;52812;48.960;9.108;2022-09-27T13:32:15;1.90;;;1.70;;
3085;SDS011;52812;48.960;9.108;2022-09-27T13:37:21;2.13;;;1.60;;
3085;SDS011;52812;48.960;9.108;2022-09-27T13:47:52;2.00;;;1.70;;
3085;SDS011;52812;48.960;9.108;2022-09-27T13:50:25;2.40;;;2.10;;
3085;SDS011;52812;48.960;9.108;2022-09-27T13:53:05;2.97;;;1.83;;
3085;SDS011;52812;48.960;9.108;2022-09-27T13:58:48;2.73;;;1.90;;
3085;SDS011;52812;48.960;9.108;2022-09-27T14:00:59;2.40;;;2.20;;
3085;SDS011;52812;48.960;9.108;2022-09-27T14:06:16;2.10;;;1.80;;
3085;SDS011;52812;48.960;9.108;2022-09-27T14:08:53;1.93;;;1.73;;
3085;SDS011;52812;48.960;9.108;2022-09-27T14:11:30;7.67;;;2.33;;
3085;SDS011;52812;48.960;9.108;2022-09-27T14:14:00;2.60;;;1.77;;
3085;SDS011;52812;48.960;9.108;2022-09-27T14:16:29;2.87;;;2.20;;
3085;SDS011;52812;48.960;9.108;2022-09-27T14:19:00;2.57;;;2.10;;
3085;SDS011;52812;48.960;9.108;2022-09-27T14:21:36;3.40;;;2.00;;
3085;SDS011;52812;48.960;9.108;2022-09-27T14:24:20;2.50;;;1.97;;
3085;SDS011;52812;48.960;9.108;2022-09-27T14:26:49;1.73;;;1.60;;
3085;SDS011;52812;48.960;9.108;2022-09-27T14:29:29;6.03;;;2.27;;
3085;SDS011;52812;48.960;9.108;2022-09-27T14:32:02;3.60;;;3.20;;
3085;SDS011;52812;48.960;9.108;2022-09-27T14:34:29;6.57;;;4.30;;
3085;SDS011;52812;48.960;9.108;2022-09-27T14:36:54;3.93;;;3.30;;
3085;SDS011;52812;48.960;9.108;2022-09-27T14:39:38;3.20;;;2.60;;
3085;SDS011;52812;48.960;9.108;2022-09-27T14:42:18;3.00;;;2.10;;
3085;SDS011;52812;48.960;9.108;2022-09-27T14:44:45;4.60;;;1.90;;
3085;SDS011;52812;48.960;9.108;2022-09-27T14:47:31;2.93;;;2.10;;
3085;SDS011;52812;48.960;9.108;2022-09-27T14:49:57;2.03;;;1.73;;
3085;SDS011;52812;48.960;9.108;2022-09-27T14:52:40;3.93;;;2.10;;
3085;SDS011;52812;48.960;9.108;2022-09-27T14:57:33;3.53;;;2.17;;
3085;SDS011;52812;48.960;9.108;2022-09-27T15:00:08;2.00;;;1.83;;
3085;SDS011;52812;48.960;9.108;2022-09-27T15:02:42;2.73;;;2.20;;
3085;SDS011;52812;48.960;9.108;2022-09-27T15:05:19;3.70;;;2.83;;
3085;SDS011;52812;48.960;9.108;2022-09-27T15:07:50;2.23;;;2.00;;
3085;SDS011;52812;48.960;9.108;2022-09-27T15:10:20;4.23;;;2.10;;
3085;SDS011;52812;48.960;9.108;2022-09-27T15:12:49;2.10;;;1.90;;
3085;SDS011;52812;48.960;9.108;2022-09-27T15:15:18;2.40;;;1.80;;
3085;SDS011;52812;48.960;9.108;2022-09-27T15:17:46;2.00;;;1.80;;
3085;SDS011;52812;48.960;9.108;2022-09-27T15:20:25;3.30;;;1.70;;
3085;SDS011;52812;48.960;9.108;2022-09-27T15:22:54;1.93;;;1.73;;
3085;SDS011;52812;48.960;9.108;2022-09-27T15:27:59;2.50;;;1.73;;
3085;SDS011;52812;48.960;9.108;2022-09-27T15:30:37;2.50;;;1.80;;
3085;SDS011;52812;48.960;9.108;2022-09-27T15:33:05;2.63;;;2.07;;
3085;SDS011;52812;48.960;9.108;2022-09-27T15:35:45;2.13;;;1.93;;
3085;SDS011;52812;48.960;9.108;2022-09-27T15:38:30;1.97;;;1.80;;
3085;SDS011;52812;48.960;9.108;2022-09-27T15:41:01;2.10;;;1.70;;
3085;SDS011;52812;48.960;9.108;2022-09-27T15:46:07;3.00;;;2.03;;
3085;SDS011;52812;48.960;9.108;2022-09-27T15:51:58;5.33;;;2.80;;
3085;SDS011;52812;48.960;9.108;2022-09-27T15:54:25;3.20;;;2.40;;
3085;SDS011;52812;48.960;9.108;2022-09-27T15:56:54;3.33;;;2.80;;
3085;SDS011;52812;48.960;9.108;2022-09-27T15:59:24;2.80;;;2.60;;
3085;SDS011;52812;48.960;9.108;2022-09-27T16:01:55;3.70;;;2.77;;
3085;SDS011;52812;48.960;9.108;2022-09-27T16:04:22;3.00;;;2.70;;
3085;SDS011;52812;48.960;9.108;2022-09-27T16:06:50;2.53;;;2.33;;
3085;SDS011;52812;48.960;9.108;2022-09-27T16:09:16;2.83;;;2.40;;
3085;SDS011;52812;48.960;9.108;2022-09-27T16:11:44;3.10;;;2.60;;
3085;SDS011;52812;48.960;9.108;2022-09-27T16:14:13;2.93;;;2.60;;
3085;SDS011;52812;48.960;9.108;2022-09-27T16:16:46;2.53;;;2.33;;
3085;SDS011;52812;48.960;9.108;2022-09-27T16:19:15;2.63;;;2.27;;
3085;SDS011;52812;48.960;9.108;2022-09-27T16:21:41;5.90;;;2.70;;
3085;SDS011;52812;48.960;9.108;2022-09-27T16:24:08;2.20;;;2.00;;
3085;SDS011;52812;48.960;9.108;2022-09-27T16:26:34;5.43;;;2.50;;
3085;SDS011;52812;48.960;9.108;2022-09-27T16:29:00;2.63;;;2.00;;
3085;SDS011;52812;48.960;9.108;2022-09-27T16:31:25;4.00;;;2.20;;
3085;SDS011;52812;48.960;9.108;2022-09-27T16:33:51;3.10;;;2.07;;
3085;SDS011;52812;48.960;9.108;2022-09-27T16:36:16;9.33;;;4.23;;
3085;SDS011;52812;48.960;9.108;2022-09-27T16:38:50;14.30;;;8.53;;
3085;SDS011;52812;48.960;9.108;2022-09-27T16:41:17;7.87;;;4.90;;
3085;SDS011;52812;48.960;9.108;2022-09-27T16:43:44;4.33;;;3.47;;
3085;SDS011;52812;48.960;9.108;2022-09-27T16:46:10;3.77;;;2.30;;
3085;SDS011;52812;48.960;9.108;2022-09-27T16:48:39;2.20;;;2.00;;
3085;SDS011;52812;48.960;9.108;2022-09-27T16:51:11;2.53;;;1.80;;
3085;SDS011;52812;48.960;9.108;2022-09-27T16:53:58;3.70;;;2.27;;
3085;SDS011;52812;48.960;9.108;2022-09-27T16:56:24;4.50;;;3.10;;
3085;SDS011;52812;48.960;9.108;2022-09-27T16:58:50;8.37;;;5.90;;
3085;SDS011;52812;48.960;9.108;2022-09-27T17:01:16;4.43;;;4.03;;
3085;SDS011;52812;48.960;9.108;2022-09-27T17:03:42;4.93;;;3.63;;
3085;SDS011;52812;48.960;9.108;2022-09-27T17:06:13;3.67;;;3.30;;
3085;SDS011;52812;48.960;9.108;2022-09-27T17:08:39;3.57;;;2.83;;
3085;SDS011;52812;48.960;9.108;2022-09-27T17:11:05;4.50;;;2.97;;
3085;SDS011;52812;48.960;9.108;2022-09-27T17:13:30;4.00;;;2.70;;
3085;SDS011;52812;48.960;9.108;2022-09-27T17:15:57;3.90;;;2.90;;
3085;SDS011;52812;48.960;9.108;2022-09-27T17:18:23;4.67;;;3.00;;
3085;SDS011;52812;48.960;9.108;2022-09-27T17:20:48;4.07;;;3.07;;
3085;SDS011;52812;48.960;9.108;2022-09-27T17:23:14;3.63;;;3.20;;
3085;SDS011;52812;48.960;9.108;2022-09-27T17:25:40;4.10;;;3.20;;
3085;SDS011;52812;48.960;9.108;2022-09-27T17:28:05;4.67;;;2.50;;
3085;SDS011;52812;48.960;9.108;2022-09-27T17:30:31;3.60;;;2.60;;
3085;SDS011;52812;48.960;9.108;2022-09-27T17:32:58;2.17;;;1.83;;
3085;SDS011;52812;48.960;9.108;2022-09-27T17:35:24;5.87;;;2.23;;
3085;SDS011;52812;48.960;9.108;2022-09-27T17:37:50;3.50;;;2.30;;
3085;SDS011;52812;48.960;9.108;2022-09-27T17:40:15;6.13;;;3.10;;
3085;SDS011;52812;48.960;9.108;2022-09-27T17:42:41;4.30;;;2.43;;
3085;SDS011;52812;48.960;9.108;2022-09-27T17:45:07;3.30;;;2.03;;
3085;SDS011;52812;48.960;9.108;2022-09-27T17:47:33;5.20;;;2.63;;
3085;SDS011;52812;48.960;9.108;2022-09-27T17:50:17;3.50;;;2.00;;
3085;SDS011;52812;48.960;9.108;2022-09-27T17:52:49;2.60;;;2.20;;
3085;SDS011;52812;48.960;9.108;2022-09-27T17:55:15;3.70;;;2.20;;
3085;SDS011;52812;48.960;9.108;2022-09-27T17:57:42;3.57;;;2.00;;
3085;SDS011;52812;48.960;9.108;2022-09-27T18:00:07;2.33;;;1.90;;
3085;SDS011;52812;48.960;9.108;2022-09-27T18:02:33;3.07;;;2.10;;